createdAt,value
2023-05-22T08:02:02.301Z,17.46
2023-05-22T08:04:30.209Z,17.54
2023-05-22T08:06:57.328Z,17.51
2023-05-22T08:09:24.490Z,17.77
2023-05-22T08:11:51.555Z,17.67
2023-05-22T08:14:18.678Z,17.84
2023-05-22T08:16:46.092Z,17.88
2023-05-22T08:19:14.085Z,17.96
2023-05-22T08:21:41.142Z,17.98
2023-05-22T08:24:08.512Z,18.03
2023-05-22T08:26:36.449Z,18.03
2023-05-22T08:29:03.469Z,18.11
2023-05-22T08:31:31.100Z,18.13
2023-05-22T08:34:02.783Z,18.17
2023-05-22T08:36:34.389Z,18.14
2023-05-22T08:39:02.110Z,18.25
2023-05-22T08:41:30.287Z,18.29
2023-05-22T08:43:58.013Z,18.20
2023-05-22T08:46:26.689Z,18.36
2023-05-22T08:48:56.823Z,18.37
2023-05-22T08:51:32.909Z,18.42
2023-05-22T08:54:01.310Z,18.47
2023-05-22T08:56:30.225Z,18.50
2023-05-22T08:58:58.429Z,18.53
2023-05-22T09:01:26.122Z,18.43
2023-05-22T09:03:54.101Z,18.60
2023-05-22T09:06:21.334Z,18.64
2023-05-22T09:08:50.073Z,18.68
2023-05-22T09:11:18.480Z,18.74
2023-05-22T09:13:45.909Z,18.80
2023-05-22T09:16:13.423Z,18.83
2023-05-22T09:18:42.321Z,18.87
2023-05-22T09:21:28.982Z,18.92
2023-05-22T09:24:01.463Z,18.98
2023-05-22T09:26:33.045Z,19.01
2023-05-22T09:29:01.179Z,19.09
2023-05-22T09:31:31.903Z,19.13
2023-05-22T09:33:59.936Z,19.18
2023-05-22T09:36:33.872Z,19.24
2023-05-22T09:39:04.066Z,19.30
2023-05-22T09:41:35.360Z,19.38
2023-05-22T09:44:06.937Z,19.49
2023-05-22T09:46:40.343Z,19.55
2023-05-22T09:49:07.804Z,19.78
2023-05-22T09:51:36.402Z,19.95
2023-05-22T09:54:06.884Z,20.08
2023-05-22T09:56:40.424Z,20.35
2023-05-22T09:59:09.978Z,20.52
2023-05-22T10:01:59.000Z,20.69
2023-05-22T10:04:49.823Z,20.89
2023-05-22T10:07:43.023Z,20.89
2023-05-22T10:10:32.646Z,21.24
2023-05-22T10:13:26.265Z,21.40
2023-05-22T10:16:14.276Z,21.46
2023-05-22T10:19:02.905Z,21.71
2023-05-22T10:21:50.599Z,21.83
2023-05-22T10:24:37.815Z,21.96
2023-05-22T10:27:24.986Z,22.09
2023-05-22T10:30:18.493Z,22.17
2023-05-22T10:33:42.706Z,22.33
2023-05-22T10:36:54.454Z,22.40
2023-05-22T10:40:00.955Z,22.37
2023-05-22T10:42:52.359Z,22.63
2023-05-22T10:45:39.525Z,22.75
2023-05-22T10:48:27.638Z,22.91
2023-05-22T10:51:14.684Z,23.03
2023-05-22T10:54:04.446Z,23.14
2023-05-22T10:56:55.600Z,23.26
2023-05-22T10:59:54.701Z,23.43
2023-05-22T11:02:45.694Z,23.55
2023-05-22T11:05:38.649Z,23.70
2023-05-22T11:08:53.800Z,23.88
2023-05-22T11:11:45.512Z,24.08
2023-05-22T11:14:33.476Z,24.26
2023-05-22T11:17:21.757Z,24.36
2023-05-22T11:20:25.241Z,24.54
2023-05-22T11:23:20.879Z,24.61
2023-05-22T11:26:07.844Z,24.67
2023-05-22T11:28:54.870Z,24.71
2023-05-22T11:31:41.935Z,24.77
2023-05-22T11:34:29.164Z,24.89
2023-05-22T11:37:19.935Z,24.92
2023-05-22T11:40:17.848Z,24.95
2023-05-22T11:43:05.219Z,25.12
2023-05-22T11:45:56.888Z,25.02
2023-05-22T11:48:44.104Z,25.28
2023-05-22T11:51:31.360Z,25.32
2023-05-22T11:54:18.463Z,25.40
2023-05-22T11:57:05.926Z,25.41
2023-05-22T11:59:53.135Z,25.42
2023-05-22T12:02:40.659Z,25.48
2023-05-22T12:05:28.010Z,25.54
2023-05-22T12:08:15.375Z,25.60
2023-05-22T12:11:11.704Z,25.70
2023-05-22T12:13:59.364Z,25.80
2023-05-22T12:16:46.498Z,25.82
2023-05-22T12:19:34.107Z,25.82
2023-05-22T12:22:22.556Z,25.81
2023-05-22T12:25:12.508Z,25.79
2023-05-22T12:27:59.519Z,25.78
2023-05-22T12:30:46.806Z,25.79
2023-05-22T12:33:37.462Z,25.83
2023-05-22T12:36:28.566Z,25.85
2023-05-22T12:39:17.530Z,25.82
2023-05-22T12:42:05.919Z,25.80
2023-05-22T12:44:52.848Z,25.79
2023-05-22T12:47:40.208Z,25.85
2023-05-22T12:50:28.116Z,25.92
2023-05-22T12:53:15.343Z,25.95
2023-05-22T12:56:03.384Z,25.97
2023-05-22T12:58:50.498Z,25.98
2023-05-22T13:01:37.737Z,25.91
2023-05-22T13:04:24.864Z,25.81
2023-05-22T13:07:12.040Z,25.54
2023-05-22T13:09:59.249Z,25.59
2023-05-22T13:12:46.295Z,25.50
2023-05-22T13:15:36.392Z,25.28
2023-05-22T13:18:24.192Z,25.20
2023-05-22T13:21:11.358Z,25.18
2023-05-22T13:23:58.609Z,25.04
2023-05-22T13:26:45.693Z,24.91
2023-05-22T13:29:32.710Z,24.81
2023-05-22T13:32:20.289Z,24.72
2023-05-22T13:35:07.338Z,24.50
2023-05-22T13:37:54.516Z,24.55
2023-05-22T13:40:41.683Z,24.51
2023-05-22T13:43:28.795Z,24.49
2023-05-22T13:46:15.810Z,24.45
2023-05-22T13:49:03.078Z,24.41
2023-05-22T13:51:50.042Z,24.33
2023-05-22T13:54:37.289Z,24.17
2023-05-22T13:57:24.339Z,24.04
2023-05-22T14:00:11.624Z,23.89
2023-05-22T14:02:58.627Z,23.68
2023-05-22T14:05:46.138Z,23.62
2023-05-22T14:08:33.213Z,23.51
2023-05-22T14:11:20.624Z,23.38
2023-05-22T14:14:07.721Z,23.30
2023-05-22T14:16:54.775Z,23.25
2023-05-22T14:19:41.865Z,23.16
2023-05-22T14:22:29.084Z,23.09
2023-05-22T14:25:16.321Z,23.02
2023-05-22T14:28:03.374Z,22.96
2023-05-22T14:30:50.655Z,22.89
2023-05-22T14:33:37.579Z,22.82
2023-05-22T14:36:25.100Z,22.72
2023-05-22T14:39:15.517Z,22.58
2023-05-22T14:42:02.884Z,22.54
2023-05-22T14:44:50.003Z,22.44
2023-05-22T14:47:37.098Z,22.41
2023-05-22T14:50:24.483Z,22.40
2023-05-22T14:53:11.547Z,22.39
2023-05-22T14:55:58.706Z,22.34
2023-05-22T14:58:45.819Z,22.27
2023-05-22T15:01:32.984Z,22.21
2023-05-22T15:04:20.056Z,22.20
2023-05-22T15:07:07.186Z,21.94
2023-05-22T15:09:54.366Z,21.97
2023-05-22T15:12:41.796Z,22.02
2023-05-22T15:15:29.380Z,21.93
2023-05-22T15:18:16.601Z,21.98
2023-05-22T15:21:03.808Z,22.05
2023-05-22T15:23:51.032Z,22.14
2023-05-22T15:26:38.186Z,22.16
2023-05-22T15:29:25.185Z,22.33
2023-05-22T15:32:12.300Z,22.51
2023-05-22T15:34:59.526Z,22.71
2023-05-22T15:37:27.660Z,22.95
2023-05-22T15:39:55.889Z,23.21
2023-05-22T15:42:22.875Z,23.41
2023-05-22T15:44:50.031Z,23.33
2023-05-22T15:47:17.046Z,23.59
2023-05-22T15:49:44.090Z,23.62
2023-05-22T15:52:31.218Z,23.66
2023-05-22T15:55:18.441Z,23.68
2023-05-22T15:58:05.519Z,23.72
2023-05-22T16:00:52.602Z,23.79
2023-05-22T16:03:39.906Z,23.81
2023-05-22T16:06:27.180Z,23.85
2023-05-22T16:09:14.696Z,23.86
2023-05-22T16:12:01.918Z,24.02
2023-05-22T16:14:49.618Z,24.04
2023-05-22T16:17:36.827Z,24.05
2023-05-22T16:20:24.456Z,24.00
2023-05-22T16:23:11.818Z,24.02
2023-05-22T16:25:58.849Z,24.16
2023-05-22T16:28:45.816Z,24.20
2023-05-22T16:31:32.907Z,24.06
2023-05-22T16:34:20.762Z,23.89
2023-05-22T16:37:07.852Z,23.98
2023-05-22T16:39:54.873Z,24.00
2023-05-22T16:42:41.928Z,24.03
2023-05-22T16:45:29.134Z,24.00
2023-05-22T16:48:16.274Z,23.97
2023-05-22T16:51:03.681Z,23.92
2023-05-22T16:53:50.868Z,23.89
2023-05-22T16:56:37.863Z,23.83
2023-05-22T16:59:25.139Z,23.71
2023-05-22T17:02:12.413Z,23.65
2023-05-22T17:04:59.517Z,23.62
2023-05-22T17:07:46.739Z,23.58
2023-05-22T17:10:34.198Z,23.53
2023-05-22T17:13:21.260Z,23.42
2023-05-22T17:16:12.009Z,23.32
2023-05-22T17:18:59.126Z,23.13
2023-05-22T17:21:46.302Z,23.11
2023-05-22T17:24:33.394Z,22.99
2023-05-22T17:27:31.680Z,22.96
2023-05-22T17:30:22.590Z,22.92
2023-05-22T17:33:10.098Z,22.91
2023-05-22T17:35:57.226Z,22.87
2023-05-22T17:38:44.356Z,23.03
2023-05-22T17:41:31.354Z,23.13
2023-05-22T17:44:18.648Z,23.17
2023-05-22T17:47:05.759Z,23.24
2023-05-22T17:49:52.893Z,23.13
2023-05-22T17:52:39.973Z,23.03
2023-05-22T17:55:27.461Z,22.95
2023-05-22T17:58:14.942Z,22.89
2023-05-22T18:01:03.096Z,22.72
2023-05-22T18:03:50.910Z,22.57
2023-05-22T18:06:37.977Z,22.36
2023-05-22T18:09:25.105Z,22.33
2023-05-22T18:12:24.418Z,22.37
2023-05-22T18:15:18.721Z,22.43
2023-05-22T18:18:05.911Z,22.38
2023-05-22T18:20:53.056Z,22.36
2023-05-22T18:23:40.238Z,22.34
2023-05-22T18:26:27.489Z,22.31
2023-05-22T18:29:14.609Z,22.22
2023-05-22T18:32:01.623Z,22.16
2023-05-22T18:34:48.711Z,22.07
2023-05-22T18:37:36.004Z,22.01
2023-05-22T18:40:23.071Z,21.94
2023-05-22T18:43:10.065Z,21.85
2023-05-22T18:48:44.417Z,21.71
2023-05-22T18:51:31.350Z,21.60
2023-05-22T18:54:18.611Z,21.47
2023-05-22T18:57:05.892Z,21.24
2023-05-22T18:59:52.997Z,21.22
2023-05-22T19:02:40.143Z,21.08
2023-05-22T19:05:27.485Z,20.97
2023-05-22T19:08:14.606Z,20.80
2023-05-22T19:11:01.606Z,20.65
2023-05-22T19:13:49.037Z,20.52
2023-05-22T19:16:36.205Z,20.33
2023-05-22T19:19:23.757Z,20.33
2023-05-22T19:22:10.737Z,20.22
2023-05-22T19:24:57.831Z,20.06
2023-05-22T19:27:45.448Z,19.97
2023-05-22T19:30:32.651Z,19.83
2023-05-22T19:33:19.728Z,19.52
2023-05-22T19:36:06.965Z,19.62
2023-05-22T19:38:53.997Z,19.49
2023-05-22T19:41:41.135Z,19.33
2023-05-22T19:44:28.145Z,19.18
2023-05-22T19:47:15.138Z,19.05
2023-05-22T19:50:02.182Z,18.87
2023-05-22T19:52:49.353Z,18.77
2023-05-22T19:55:36.493Z,18.59
2023-05-22T19:58:23.433Z,18.54
2023-05-22T20:01:10.483Z,18.38
2023-05-22T20:03:57.602Z,18.30
2023-05-22T20:06:44.739Z,18.19
2023-05-22T20:09:31.745Z,18.09
2023-05-22T20:12:18.888Z,17.94
2023-05-22T20:15:06.318Z,17.79
2023-05-22T20:17:54.351Z,17.67
2023-05-22T20:20:42.088Z,17.57
2023-05-22T20:23:29.089Z,17.47
2023-05-22T20:26:16.165Z,17.37
2023-05-22T20:29:03.334Z,17.16
2023-05-22T20:31:50.504Z,17.14
2023-05-22T20:34:37.488Z,17.04
2023-05-22T20:37:24.946Z,16.94
2023-05-22T20:40:12.046Z,16.85
2023-05-22T20:42:59.634Z,16.73
2023-05-22T20:45:46.697Z,16.63
2023-05-22T20:48:33.836Z,16.56
2023-05-22T20:51:20.859Z,16.47
2023-05-22T20:54:08.637Z,16.39
2023-05-22T20:56:55.710Z,16.30
2023-05-22T20:59:42.732Z,16.12
2023-05-22T21:02:29.842Z,16.13
2023-05-22T21:05:16.891Z,16.03
2023-05-22T21:08:03.914Z,15.91
2023-05-22T21:10:50.950Z,15.75
2023-05-22T21:13:39.498Z,15.77
2023-05-22T21:16:27.090Z,15.69
2023-05-22T21:19:14.410Z,15.59
2023-05-22T21:22:01.563Z,15.50
2023-05-22T21:24:48.614Z,15.44
2023-05-22T21:27:35.742Z,15.36
2023-05-22T21:30:22.792Z,15.26
2023-05-22T21:33:09.837Z,15.21
2023-05-22T21:35:56.814Z,15.10
2023-05-22T21:38:43.887Z,15.06
2023-05-22T21:41:31.035Z,14.91
2023-05-22T21:44:18.402Z,14.91
2023-05-22T21:47:05.360Z,14.84
2023-05-22T21:49:52.407Z,14.77
2023-05-22T21:52:39.588Z,14.71
2023-05-22T21:55:27.751Z,14.63
2023-05-22T21:58:15.727Z,14.55
2023-05-22T22:01:02.832Z,14.43
2023-05-22T22:03:49.845Z,14.40
2023-05-22T22:06:36.948Z,14.33
2023-05-22T22:09:24.191Z,14.09
2023-05-22T22:12:11.278Z,14.21
2023-05-22T22:14:58.319Z,14.15
2023-05-22T22:17:45.494Z,14.07
2023-05-22T22:20:43.470Z,14.02
2023-05-22T22:23:32.595Z,13.93
2023-05-22T22:26:19.550Z,13.87
2023-05-22T22:29:06.748Z,13.81
2023-05-22T22:31:54.354Z,13.71
2023-05-22T22:34:41.470Z,13.67
2023-05-22T22:37:28.435Z,13.62
2023-05-22T22:40:15.555Z,13.55
2023-05-22T22:43:02.534Z,13.49
2023-05-22T22:45:49.670Z,13.43
2023-05-22T22:48:36.850Z,13.36
2023-05-22T22:51:24.023Z,13.26
2023-05-22T22:54:10.992Z,13.24
2023-05-22T22:56:58.158Z,13.19
2023-05-22T22:59:45.257Z,13.14
2023-05-22T23:02:32.454Z,13.09
2023-05-22T23:05:19.527Z,13.04
2023-05-22T23:08:07.675Z,13.01
2023-05-22T23:10:54.676Z,12.82
2023-05-22T23:13:41.851Z,12.92
2023-05-22T23:16:29.327Z,12.88
2023-05-22T23:19:16.567Z,12.83
2023-05-22T23:22:04.708Z,12.78
2023-05-22T23:24:52.053Z,12.50
2023-05-22T23:27:39.325Z,12.69
2023-05-22T23:30:28.266Z,12.63
2023-05-22T23:33:15.354Z,12.58
2023-05-22T23:36:02.524Z,12.52
2023-05-22T23:38:49.485Z,12.48
2023-05-22T23:41:40.209Z,12.43
2023-05-22T23:44:27.486Z,12.38
2023-05-22T23:47:14.767Z,12.33
2023-05-22T23:50:01.879Z,12.27
2023-05-22T23:52:49.169Z,12.20
2023-05-22T23:55:36.235Z,12.13
2023-05-22T23:58:23.587Z,12.07
